sensor_id;sensor_type;location;lat;lon;timestamp;P1;durP1;ratioP1;P2;durP2;ratioP2
32172;SDS011;18679;45.190;5.722;2024-01-06T00:01:38;4.40;;;2.60;;
32172;SDS011;18679;45.190;5.722;2024-01-06T00:04:39;5.13;;;3.00;;
32172;SDS011;18679;45.190;5.722;2024-01-06T00:07:39;5.82;;;2.47;;
32172;SDS011;18679;45.190;5.722;2024-01-06T00:10:43;4.03;;;2.25;;
32172;SDS011;18679;45.190;5.722;2024-01-06T00:13:45;5.43;;;2.58;;
32172;SDS011;18679;45.190;5.722;2024-01-06T00:16:46;4.60;;;2.15;;
32172;SDS011;18679;45.190;5.722;2024-01-06T00:19:46;4.03;;;2.90;;
32172;SDS011;18679;45.190;5.722;2024-01-06T00:22:51;4.40;;;2.88;;
32172;SDS011;18679;45.190;5.722;2024-01-06T00:25:51;5.28;;;2.72;;
32172;SDS011;18679;45.190;5.722;2024-01-06T00:28:53;3.13;;;2.10;;
32172;SDS011;18679;45.190;5.722;2024-01-06T00:31:54;5.65;;;3.40;;
32172;SDS011;18679;45.190;5.722;2024-01-06T00:34:58;3.90;;;2.90;;
32172;SDS011;18679;45.190;5.722;2024-01-06T00:38:04;6.65;;;3.17;;
32172;SDS011;18679;45.190;5.722;2024-01-06T00:41:05;6.28;;;3.83;;
32172;SDS011;18679;45.190;5.722;2024-01-06T00:44:06;9.73;;;5.20;;
32172;SDS011;18679;45.190;5.722;2024-01-06T00:47:07;6.35;;;3.58;;
32172;SDS011;18679;45.190;5.722;2024-01-06T00:50:08;9.18;;;4.90;;
32172;SDS011;18679;45.190;5.722;2024-01-06T00:53:10;10.68;;;4.93;;
32172;SDS011;18679;45.190;5.722;2024-01-06T00:56:12;12.98;;;4.90;;
32172;SDS011;18679;45.190;5.722;2024-01-06T00:59:13;11.30;;;4.57;;
32172;SDS011;18679;45.190;5.722;2024-01-06T01:02:15;10.38;;;3.47;;
32172;SDS011;18679;45.190;5.722;2024-01-06T01:05:15;5.85;;;3.63;;
32172;SDS011;18679;45.190;5.722;2024-01-06T01:08:17;6.68;;;3.63;;
32172;SDS011;18679;45.190;5.722;2024-01-06T01:11:18;9.93;;;4.60;;
32172;SDS011;18679;45.190;5.722;2024-01-06T01:14:20;9.77;;;5.32;;
32172;SDS011;18679;45.190;5.722;2024-01-06T01:17:22;10.98;;;5.20;;
32172;SDS011;18679;45.190;5.722;2024-01-06T01:20:23;17.70;;;7.22;;
32172;SDS011;18679;45.190;5.722;2024-01-06T01:23:24;14.13;;;6.18;;
32172;SDS011;18679;45.190;5.722;2024-01-06T01:26:25;12.93;;;6.70;;
32172;SDS011;18679;45.190;5.722;2024-01-06T01:29:26;16.85;;;6.15;;
32172;SDS011;18679;45.190;5.722;2024-01-06T01:32:27;13.27;;;6.85;;
32172;SDS011;18679;45.190;5.722;2024-01-06T01:35:28;17.23;;;7.38;;
32172;SDS011;18679;45.190;5.722;2024-01-06T01:38:29;13.18;;;6.82;;
32172;SDS011;18679;45.190;5.722;2024-01-06T01:41:30;14.32;;;7.30;;
32172;SDS011;18679;45.190;5.722;2024-01-06T01:44:30;14.57;;;7.30;;
32172;SDS011;18679;45.190;5.722;2024-01-06T01:47:31;18.80;;;8.02;;
32172;SDS011;18679;45.190;5.722;2024-01-06T01:50:34;16.65;;;7.75;;
32172;SDS011;18679;45.190;5.722;2024-01-06T01:53:35;15.15;;;7.68;;
32172;SDS011;18679;45.190;5.722;2024-01-06T01:56:36;15.52;;;5.88;;
32172;SDS011;18679;45.190;5.722;2024-01-06T01:59:39;14.50;;;7.57;;
32172;SDS011;18679;45.190;5.722;2024-01-06T02:02:40;14.18;;;6.03;;
32172;SDS011;18679;45.190;5.722;2024-01-06T02:05:45;11.48;;;6.35;;
32172;SDS011;18679;45.190;5.722;2024-01-06T02:08:46;11.45;;;4.15;;
32172;SDS011;18679;45.190;5.722;2024-01-06T02:11:48;5.47;;;3.17;;
32172;SDS011;18679;45.190;5.722;2024-01-06T02:14:49;6.53;;;2.67;;
32172;SDS011;18679;45.190;5.722;2024-01-06T02:17:50;3.58;;;1.80;;
32172;SDS011;18679;45.190;5.722;2024-01-06T02:20:51;2.13;;;1.23;;
32172;SDS011;18679;45.190;5.722;2024-01-06T02:23:57;4.22;;;1.40;;
32172;SDS011;18679;45.190;5.722;2024-01-06T02:26:59;3.20;;;1.17;;
32172;SDS011;18679;45.190;5.722;2024-01-06T02:30:00;1.13;;;0.85;;
32172;SDS011;18679;45.190;5.722;2024-01-06T02:33:02;2.28;;;0.90;;
32172;SDS011;18679;45.190;5.722;2024-01-06T02:36:02;1.58;;;1.08;;
32172;SDS011;18679;45.190;5.722;2024-01-06T02:39:04;1.50;;;0.77;;
32172;SDS011;18679;45.190;5.722;2024-01-06T02:42:04;1.27;;;0.93;;
32172;SDS011;18679;45.190;5.722;2024-01-06T02:45:07;1.10;;;0.70;;
32172;SDS011;18679;45.190;5.722;2024-01-06T02:48:30;2.47;;;0.80;;
32172;SDS011;18679;45.190;5.722;2024-01-06T02:51:31;1.15;;;0.63;;
32172;SDS011;18679;45.190;5.722;2024-01-06T02:54:31;4.07;;;1.20;;
32172;SDS011;18679;45.190;5.722;2024-01-06T02:57:32;1.05;;;0.80;;
32172;SDS011;18679;45.190;5.722;2024-01-06T03:00:34;0.82;;;0.57;;
32172;SDS011;18679;45.190;5.722;2024-01-06T03:03:35;0.88;;;0.85;;
32172;SDS011;18679;45.190;5.722;2024-01-06T03:06:37;1.77;;;0.90;;
32172;SDS011;18679;45.190;5.722;2024-01-06T03:09:39;0.75;;;0.75;;
32172;SDS011;18679;45.190;5.722;2024-01-06T03:12:40;2.22;;;0.70;;
32172;SDS011;18679;45.190;5.722;2024-01-06T03:15:41;2.75;;;1.20;;
32172;SDS011;18679;45.190;5.722;2024-01-06T03:18:42;1.50;;;1.10;;
32172;SDS011;18679;45.190;5.722;2024-01-06T03:21:44;2.58;;;1.25;;
32172;SDS011;18679;45.190;5.722;2024-01-06T03:24:45;1.23;;;0.75;;
32172;SDS011;18679;45.190;5.722;2024-01-06T03:27:46;0.80;;;0.70;;
32172;SDS011;18679;45.190;5.722;2024-01-06T03:30:46;2.00;;;1.08;;
32172;SDS011;18679;45.190;5.722;2024-01-06T03:33:48;2.28;;;0.98;;
32172;SDS011;18679;45.190;5.722;2024-01-06T03:36:49;1.60;;;1.10;;
32172;SDS011;18679;45.190;5.722;2024-01-06T03:39:51;1.13;;;0.45;;
32172;SDS011;18679;45.190;5.722;2024-01-06T03:42:56;1.90;;;0.85;;
32172;SDS011;18679;45.190;5.722;2024-01-06T03:45:57;4.47;;;1.00;;
32172;SDS011;18679;45.190;5.722;2024-01-06T03:49:01;4.18;;;1.75;;
32172;SDS011;18679;45.190;5.722;2024-01-06T03:52:02;1.75;;;0.73;;
32172;SDS011;18679;45.190;5.722;2024-01-06T03:55:03;1.73;;;0.93;;
32172;SDS011;18679;45.190;5.722;2024-01-06T03:58:05;1.48;;;0.98;;
32172;SDS011;18679;45.190;5.722;2024-01-06T04:01:07;1.65;;;1.00;;
32172;SDS011;18679;45.190;5.722;2024-01-06T04:04:07;2.00;;;1.13;;
32172;SDS011;18679;45.190;5.722;2024-01-06T04:07:08;5.00;;;1.52;;
32172;SDS011;18679;45.190;5.722;2024-01-06T04:10:09;1.30;;;0.68;;
32172;SDS011;18679;45.190;5.722;2024-01-06T04:13:11;1.52;;;1.02;;
32172;SDS011;18679;45.190;5.722;2024-01-06T04:16:14;5.25;;;1.15;;
32172;SDS011;18679;45.190;5.722;2024-01-06T04:19:16;1.65;;;0.95;;
32172;SDS011;18679;45.190;5.722;2024-01-06T04:22:17;1.52;;;0.80;;
32172;SDS011;18679;45.190;5.722;2024-01-06T04:25:18;3.80;;;1.23;;
32172;SDS011;18679;45.190;5.722;2024-01-06T04:28:19;1.42;;;1.00;;
32172;SDS011;18679;45.190;5.722;2024-01-06T04:31:21;2.38;;;0.77;;
32172;SDS011;18679;45.190;5.722;2024-01-06T04:34:23;1.60;;;0.75;;
32172;SDS011;18679;45.190;5.722;2024-01-06T04:37:24;1.33;;;0.70;;
32172;SDS011;18679;45.190;5.722;2024-01-06T04:40:27;1.00;;;0.60;;
32172;SDS011;18679;45.190;5.722;2024-01-06T04:43:27;1.40;;;1.00;;
32172;SDS011;18679;45.190;5.722;2024-01-06T04:46:30;1.08;;;0.50;;
32172;SDS011;18679;45.190;5.722;2024-01-06T04:49:33;1.95;;;1.13;;
32172;SDS011;18679;45.190;5.722;2024-01-06T04:52:34;1.88;;;0.95;;
32172;SDS011;18679;45.190;5.722;2024-01-06T04:55:35;5.10;;;0.90;;
32172;SDS011;18679;45.190;5.722;2024-01-06T04:58:36;1.27;;;0.93;;
32172;SDS011;18679;45.190;5.722;2024-01-06T05:01:37;0.98;;;0.60;;
32172;SDS011;18679;45.190;5.722;2024-01-06T05:04:39;1.67;;;0.60;;
32172;SDS011;18679;45.190;5.722;2024-01-06T05:07:41;7.55;;;1.10;;
32172;SDS011;18679;45.190;5.722;2024-01-06T05:10:42;3.75;;;0.77;;
32172;SDS011;18679;45.190;5.722;2024-01-06T05:13:42;1.50;;;0.90;;
32172;SDS011;18679;45.190;5.722;2024-01-06T05:16:43;5.50;;;1.23;;
32172;SDS011;18679;45.190;5.722;2024-01-06T05:19:44;0.68;;;0.68;;
32172;SDS011;18679;45.190;5.722;2024-01-06T05:22:45;0.93;;;0.77;;
32172;SDS011;18679;45.190;5.722;2024-01-06T05:25:47;2.80;;;0.63;;
32172;SDS011;18679;45.190;5.722;2024-01-06T05:28:48;1.40;;;1.08;;
32172;SDS011;18679;45.190;5.722;2024-01-06T05:31:49;3.45;;;1.25;;
32172;SDS011;18679;45.190;5.722;2024-01-06T05:34:51;2.40;;;0.88;;
32172;SDS011;18679;45.190;5.722;2024-01-06T05:37:52;4.43;;;1.17;;
32172;SDS011;18679;45.190;5.722;2024-01-06T05:40:55;1.95;;;1.08;;
32172;SDS011;18679;45.190;5.722;2024-01-06T05:43:57;0.88;;;0.80;;
32172;SDS011;18679;45.190;5.722;2024-01-06T05:46:58;1.05;;;0.65;;
32172;SDS011;18679;45.190;5.722;2024-01-06T05:49:59;5.00;;;1.25;;
32172;SDS011;18679;45.190;5.722;2024-01-06T05:52:59;1.45;;;1.02;;
32172;SDS011;18679;45.190;5.722;2024-01-06T05:56:00;1.70;;;1.00;;
32172;SDS011;18679;45.190;5.722;2024-01-06T05:59:01;1.52;;;0.60;;
32172;SDS011;18679;45.190;5.722;2024-01-06T06:02:05;0.65;;;0.60;;
32172;SDS011;18679;45.190;5.722;2024-01-06T06:05:05;0.90;;;0.57;;
32172;SDS011;18679;45.190;5.722;2024-01-06T06:08:06;2.95;;;1.00;;
32172;SDS011;18679;45.190;5.722;2024-01-06T06:11:08;3.28;;;1.38;;
32172;SDS011;18679;45.190;5.722;2024-01-06T06:14:11;1.33;;;0.80;;
32172;SDS011;18679;45.190;5.722;2024-01-06T06:17:13;1.60;;;0.45;;
32172;SDS011;18679;45.190;5.722;2024-01-06T06:20:15;3.53;;;0.75;;
32172;SDS011;18679;45.190;5.722;2024-01-06T06:23:17;3.63;;;0.90;;
32172;SDS011;18679;45.190;5.722;2024-01-06T06:26:17;5.80;;;1.25;;
32172;SDS011;18679;45.190;5.722;2024-01-06T06:29:18;0.90;;;0.63;;
32172;SDS011;18679;45.190;5.722;2024-01-06T06:32:21;0.93;;;0.52;;
32172;SDS011;18679;45.190;5.722;2024-01-06T06:35:23;0.88;;;0.60;;
32172;SDS011;18679;45.190;5.722;2024-01-06T06:38:26;1.05;;;0.63;;
32172;SDS011;18679;45.190;5.722;2024-01-06T06:41:28;5.65;;;1.05;;
32172;SDS011;18679;45.190;5.722;2024-01-06T06:44:29;1.13;;;0.70;;
32172;SDS011;18679;45.190;5.722;2024-01-06T06:47:30;0.63;;;0.45;;
32172;SDS011;18679;45.190;5.722;2024-01-06T06:50:32;1.20;;;0.65;;
32172;SDS011;18679;45.190;5.722;2024-01-06T06:53:37;3.10;;;1.27;;
32172;SDS011;18679;45.190;5.722;2024-01-06T06:56:38;3.83;;;0.70;;
32172;SDS011;18679;45.190;5.722;2024-01-06T06:59:41;1.42;;;0.85;;
32172;SDS011;18679;45.190;5.722;2024-01-06T07:02:42;4.63;;;0.85;;
32172;SDS011;18679;45.190;5.722;2024-01-06T07:05:42;3.78;;;0.85;;
32172;SDS011;18679;45.190;5.722;2024-01-06T07:08:45;1.85;;;1.35;;
32172;SDS011;18679;45.190;5.722;2024-01-06T07:11:46;5.15;;;1.00;;
32172;SDS011;18679;45.190;5.722;2024-01-06T07:14:48;5.53;;;1.05;;
32172;SDS011;18679;45.190;5.722;2024-01-06T07:17:50;3.92;;;0.80;;
32172;SDS011;18679;45.190;5.722;2024-01-06T07:20:51;1.55;;;0.73;;
32172;SDS011;18679;45.190;5.722;2024-01-06T07:23:52;0.60;;;0.60;;
32172;SDS011;18679;45.190;5.722;2024-01-06T07:26:53;1.48;;;0.80;;
32172;SDS011;18679;45.190;5.722;2024-01-06T07:29:54;16.48;;;1.15;;
32172;SDS011;18679;45.190;5.722;2024-01-06T07:32:57;3.15;;;0.68;;
32172;SDS011;18679;45.190;5.722;2024-01-06T07:35:58;1.00;;;0.73;;
32172;SDS011;18679;45.190;5.722;2024-01-06T07:39:00;25.50;;;1.55;;
32172;SDS011;18679;45.190;5.722;2024-01-06T07:42:01;1.00;;;0.90;;
32172;SDS011;18679;45.190;5.722;2024-01-06T07:45:04;1.20;;;0.50;;
32172;SDS011;18679;45.190;5.722;2024-01-06T07:48:06;3.53;;;0.93;;
32172;SDS011;18679;45.190;5.722;2024-01-06T07:51:07;1.75;;;0.57;;
32172;SDS011;18679;45.190;5.722;2024-01-06T07:54:08;1.50;;;0.85;;
32172;SDS011;18679;45.190;5.722;2024-01-06T07:57:11;0.50;;;0.50;;
32172;SDS011;18679;45.190;5.722;2024-01-06T08:00:13;1.73;;;1.05;;
32172;SDS011;18679;45.190;5.722;2024-01-06T08:03:18;1.40;;;0.50;;
32172;SDS011;18679;45.190;5.722;2024-01-06T08:06:19;4.00;;;0.88;;
32172;SDS011;18679;45.190;5.722;2024-01-06T08:09:20;4.72;;;0.95;;
32172;SDS011;18679;45.190;5.722;2024-01-06T08:12:23;0.88;;;0.60;;
32172;SDS011;18679;45.190;5.722;2024-01-06T08:15:26;4.05;;;0.82;;
32172;SDS011;18679;45.190;5.722;2024-01-06T08:18:26;0.95;;;0.88;;
32172;SDS011;18679;45.190;5.722;2024-01-06T08:21:29;2.08;;;0.60;;
32172;SDS011;18679;45.190;5.722;2024-01-06T08:24:30;0.55;;;0.55;;
32172;SDS011;18679;45.190;5.722;2024-01-06T08:27:31;0.95;;;0.43;;
32172;SDS011;18679;45.190;5.722;2024-01-06T08:30:33;2.15;;;0.70;;
32172;SDS011;18679;45.190;5.722;2024-01-06T08:33:34;0.80;;;0.77;;
32172;SDS011;18679;45.190;5.722;2024-01-06T08:36:35;1.25;;;0.98;;
32172;SDS011;18679;45.190;5.722;2024-01-06T08:39:37;1.20;;;0.80;;
32172;SDS011;18679;45.190;5.722;2024-01-06T08:42:38;2.00;;;0.65;;
32172;SDS011;18679;45.190;5.722;2024-01-06T08:45:39;2.90;;;1.05;;
32172;SDS011;18679;45.190;5.722;2024-01-06T08:48:40;2.40;;;0.60;;
32172;SDS011;18679;45.190;5.722;2024-01-06T08:51:42;1.27;;;0.80;;
32172;SDS011;18679;45.190;5.722;2024-01-06T08:54:43;0.80;;;0.80;;
32172;SDS011;18679;45.190;5.722;2024-01-06T08:57:45;0.80;;;0.60;;
32172;SDS011;18679;45.190;5.722;2024-01-06T09:00:46;6.18;;;1.13;;
32172;SDS011;18679;45.190;5.722;2024-01-06T09:03:49;0.85;;;0.80;;
32172;SDS011;18679;45.190;5.722;2024-01-06T09:06:50;9.35;;;0.82;;
32172;SDS011;18679;45.190;5.722;2024-01-06T09:09:57;4.15;;;0.95;;
32172;SDS011;18679;45.190;5.722;2024-01-06T09:12:57;2.15;;;1.20;;
32172;SDS011;18679;45.190;5.722;2024-01-06T09:16:01;5.53;;;1.02;;
32172;SDS011;18679;45.190;5.722;2024-01-06T09:19:03;1.15;;;0.93;;
32172;SDS011;18679;45.190;5.722;2024-01-06T09:22:04;5.63;;;1.27;;
32172;SDS011;18679;45.190;5.722;2024-01-06T09:25:04;4.18;;;1.20;;
32172;SDS011;18679;45.190;5.722;2024-01-06T09:28:06;3.75;;;1.30;;
32172;SDS011;18679;45.190;5.722;2024-01-06T09:31:07;0.77;;;0.77;;
32172;SDS011;18679;45.190;5.722;2024-01-06T09:34:08;6.32;;;1.25;;
32172;SDS011;18679;45.190;5.722;2024-01-06T09:37:10;4.95;;;1.92;;
32172;SDS011;18679;45.190;5.722;2024-01-06T09:40:13;2.33;;;0.90;;
32172;SDS011;18679;45.190;5.722;2024-01-06T09:43:14;1.75;;;1.42;;
32172;SDS011;18679;45.190;5.722;2024-01-06T09:46:17;2.97;;;1.33;;
32172;SDS011;18679;45.190;5.722;2024-01-06T09:49:22;4.28;;;1.17;;
32172;SDS011;18679;45.190;5.722;2024-01-06T09:52:24;6.28;;;1.20;;
32172;SDS011;18679;45.190;5.722;2024-01-06T09:55:27;3.67;;;1.80;;
32172;SDS011;18679;45.190;5.722;2024-01-06T09:58:30;1.88;;;1.23;;
32172;SDS011;18679;45.190;5.722;2024-01-06T10:01:34;5.28;;;1.38;;
32172;SDS011;18679;45.190;5.722;2024-01-06T10:04:36;1.33;;;0.95;;
32172;SDS011;18679;45.190;5.722;2024-01-06T10:07:41;2.17;;;1.50;;
32172;SDS011;18679;45.190;5.722;2024-01-06T10:10:44;5.55;;;1.33;;
32172;SDS011;18679;45.190;5.722;2024-01-06T10:13:45;0.60;;;0.60;;
32172;SDS011;18679;45.190;5.722;2024-01-06T10:16:48;2.80;;;1.15;;
32172;SDS011;18679;45.190;5.722;2024-01-06T10:19:51;11.02;;;1.58;;
32172;SDS011;18679;45.190;5.722;2024-01-06T10:22:53;2.00;;;1.33;;
32172;SDS011;18679;45.190;5.722;2024-01-06T10:25:55;5.35;;;1.27;;
32172;SDS011;18679;45.190;5.722;2024-01-06T10:28:56;3.33;;;0.85;;
32172;SDS011;18679;45.190;5.722;2024-01-06T10:31:58;5.07;;;1.90;;
32172;SDS011;18679;45.190;5.722;2024-01-06T10:35:00;1.55;;;0.90;;
32172;SDS011;18679;45.190;5.722;2024-01-06T10:38:04;1.30;;;1.05;;
32172;SDS011;18679;45.190;5.722;2024-01-06T10:41:07;2.38;;;1.25;;
32172;SDS011;18679;45.190;5.722;2024-01-06T10:44:09;4.85;;;1.10;;
32172;SDS011;18679;45.190;5.722;2024-01-06T10:47:11;1.02;;;0.93;;
32172;SDS011;18679;45.190;5.722;2024-01-06T10:50:19;1.80;;;1.30;;
32172;SDS011;18679;45.190;5.722;2024-01-06T10:53:21;1.02;;;0.90;;
32172;SDS011;18679;45.190;5.722;2024-01-06T10:56:26;3.08;;;1.23;;
32172;SDS011;18679;45.190;5.722;2024-01-06T10:59:28;2.75;;;1.40;;
32172;SDS011;18679;45.190;5.722;2024-01-06T11:02:34;7.90;;;1.25;;
32172;SDS011;18679;45.190;5.722;2024-01-06T11:05:36;3.75;;;1.35;;
32172;SDS011;18679;45.190;5.722;2024-01-06T11:08:44;4.88;;;1.63;;
32172;SDS011;18679;45.190;5.722;2024-01-06T11:12:06;4.30;;;1.50;;
32172;SDS011;18679;45.190;5.722;2024-01-06T11:15:08;3.10;;;1.50;;
32172;SDS011;18679;45.190;5.722;2024-01-06T11:18:32;0.95;;;0.85;;
32172;SDS011;18679;45.190;5.722;2024-01-06T11:21:35;4.47;;;1.27;;
32172;SDS011;18679;45.190;5.722;2024-01-06T11:24:36;1.17;;;1.02;;
32172;SDS011;18679;45.190;5.722;2024-01-06T11:27:37;1.98;;;1.17;;
32172;SDS011;18679;45.190;5.722;2024-01-06T11:30:38;1.33;;;1.05;;
32172;SDS011;18679;45.190;5.722;2024-01-06T11:33:41;4.85;;;1.05;;
32172;SDS011;18679;45.190;5.722;2024-01-06T11:36:45;2.63;;;1.48;;
32172;SDS011;18679;45.190;5.722;2024-01-06T11:39:48;5.30;;;1.25;;
32172;SDS011;18679;45.190;5.722;2024-01-06T11:43:08;2.85;;;1.30;;
32172;SDS011;18679;45.190;5.722;2024-01-06T11:46:11;4.63;;;2.45;;
32172;SDS011;18679;45.190;5.722;2024-01-06T11:49:14;11.13;;;1.85;;
32172;SDS011;18679;45.190;5.722;2024-01-06T11:52:16;4.53;;;1.52;;
32172;SDS011;18679;45.190;5.722;2024-01-06T11:55:19;2.20;;;1.23;;
32172;SDS011;18679;45.190;5.722;2024-01-06T11:58:24;2.85;;;1.95;;
32172;SDS011;18679;45.190;5.722;2024-01-06T12:01:25;4.68;;;1.52;;
32172;SDS011;18679;45.190;5.722;2024-01-06T12:04:26;3.78;;;1.65;;
32172;SDS011;18679;45.190;5.722;2024-01-06T12:07:30;3.38;;;1.33;;
32172;SDS011;18679;45.190;5.722;2024-01-06T12:10:33;3.83;;;1.60;;
32172;SDS011;18679;45.190;5.722;2024-01-06T12:13:34;8.93;;;2.20;;
32172;SDS011;18679;45.190;5.722;2024-01-06T12:16:36;2.20;;;1.15;;
32172;SDS011;18679;45.190;5.722;2024-01-06T12:19:39;3.97;;;1.67;;
32172;SDS011;18679;45.190;5.722;2024-01-06T12:22:45;3.05;;;1.55;;
32172;SDS011;18679;45.190;5.722;2024-01-06T12:25:49;1.92;;;1.42;;
32172;SDS011;18679;45.190;5.722;2024-01-06T12:28:53;1.80;;;0.95;;
32172;SDS011;18679;45.190;5.722;2024-01-06T12:31:55;4.20;;;0.90;;
32172;SDS011;18679;45.190;5.722;2024-01-06T12:34:56;1.23;;;0.90;;
32172;SDS011;18679;45.190;5.722;2024-01-06T12:37:57;1.95;;;1.17;;
32172;SDS011;18679;45.190;5.722;2024-01-06T12:40:58;1.48;;;0.80;;
32172;SDS011;18679;45.190;5.722;2024-01-06T12:43:59;3.03;;;1.85;;
32172;SDS011;18679;45.190;5.722;2024-01-06T12:47:00;7.03;;;1.60;;
32172;SDS011;18679;45.190;5.722;2024-01-06T12:50:03;1.23;;;0.68;;
32172;SDS011;18679;45.190;5.722;2024-01-06T12:53:04;1.55;;;0.85;;
32172;SDS011;18679;45.190;5.722;2024-01-06T12:56:07;4.53;;;1.15;;
32172;SDS011;18679;45.190;5.722;2024-01-06T12:59:08;1.60;;;0.90;;
32172;SDS011;18679;45.190;5.722;2024-01-06T13:02:09;2.88;;;0.50;;
32172;SDS011;18679;45.190;5.722;2024-01-06T13:05:11;0.57;;;0.57;;
32172;SDS011;18679;45.190;5.722;2024-01-06T13:08:12;2.05;;;0.82;;
32172;SDS011;18679;45.190;5.722;2024-01-06T13:11:13;0.60;;;0.60;;
32172;SDS011;18679;45.190;5.722;2024-01-06T13:14:15;4.78;;;1.05;;
32172;SDS011;18679;45.190;5.722;2024-01-06T13:17:16;1.02;;;0.80;;
32172;SDS011;18679;45.190;5.722;2024-01-06T13:20:17;1.85;;;0.82;;
32172;SDS011;18679;45.190;5.722;2024-01-06T13:23:19;0.63;;;0.63;;
32172;SDS011;18679;45.190;5.722;2024-01-06T13:26:20;0.55;;;0.32;;
32172;SDS011;18679;45.190;5.722;2024-01-06T13:29:22;1.00;;;0.70;;
32172;SDS011;18679;45.190;5.722;2024-01-06T13:32:23;0.68;;;0.50;;
32172;SDS011;18679;45.190;5.722;2024-01-06T13:35:24;0.70;;;0.70;;
32172;SDS011;18679;45.190;5.722;2024-01-06T13:38:28;0.73;;;0.68;;
32172;SDS011;18679;45.190;5.722;2024-01-06T13:41:30;6.07;;;0.60;;
32172;SDS011;18679;45.190;5.722;2024-01-06T13:44:31;1.35;;;1.17;;
32172;SDS011;18679;45.190;5.722;2024-01-06T13:47:32;3.40;;;1.50;;
32172;SDS011;18679;45.190;5.722;2024-01-06T13:50:33;2.17;;;1.25;;
32172;SDS011;18679;45.190;5.722;2024-01-06T13:53:34;3.20;;;1.33;;
32172;SDS011;18679;45.190;5.722;2024-01-06T13:56:35;3.75;;;1.20;;
32172;SDS011;18679;45.190;5.722;2024-01-06T13:59:38;1.30;;;0.57;;
32172;SDS011;18679;45.190;5.722;2024-01-06T14:02:42;2.60;;;1.05;;
32172;SDS011;18679;45.190;5.722;2024-01-06T14:05:43;2.97;;;1.00;;
32172;SDS011;18679;45.190;5.722;2024-01-06T14:08:46;1.50;;;0.82;;
32172;SDS011;18679;45.190;5.722;2024-01-06T14:11:49;1.77;;;0.73;;
32172;SDS011;18679;45.190;5.722;2024-01-06T14:14:51;2.47;;;1.00;;
32172;SDS011;18679;45.190;5.722;2024-01-06T14:17:52;1.45;;;1.20;;
32172;SDS011;18679;45.190;5.722;2024-01-06T14:20:53;1.25;;;0.75;;
32172;SDS011;18679;45.190;5.722;2024-01-06T14:23:56;2.65;;;0.90;;
32172;SDS011;18679;45.190;5.722;2024-01-06T14:26:59;0.80;;;0.57;;
32172;SDS011;18679;45.190;5.722;2024-01-06T14:30:00;0.70;;;0.70;;
32172;SDS011;18679;45.190;5.722;2024-01-06T14:33:01;0.68;;;0.30;;
32172;SDS011;18679;45.190;5.722;2024-01-06T14:36:02;2.75;;;0.98;;
32172;SDS011;18679;45.190;5.722;2024-01-06T14:39:05;1.35;;;0.60;;
32172;SDS011;18679;45.190;5.722;2024-01-06T14:42:07;1.17;;;0.73;;
32172;SDS011;18679;45.190;5.722;2024-01-06T14:45:09;1.38;;;0.73;;
32172;SDS011;18679;45.190;5.722;2024-01-06T14:48:12;1.50;;;0.93;;
32172;SDS011;18679;45.190;5.722;2024-01-06T14:51:12;4.38;;;1.52;;
32172;SDS011;18679;45.190;5.722;2024-01-06T14:54:13;1.60;;;0.80;;
32172;SDS011;18679;45.190;5.722;2024-01-06T14:57:15;0.82;;;0.80;;
32172;SDS011;18679;45.190;5.722;2024-01-06T15:00:15;1.98;;;1.13;;
32172;SDS011;18679;45.190;5.722;2024-01-06T15:03:16;0.80;;;0.70;;
32172;SDS011;18679;45.190;5.722;2024-01-06T15:06:18;1.95;;;0.80;;
32172;SDS011;18679;45.190;5.722;2024-01-06T15:09:18;1.17;;;0.77;;
32172;SDS011;18679;45.190;5.722;2024-01-06T15:12:21;1.90;;;1.17;;
32172;SDS011;18679;45.190;5.722;2024-01-06T15:15:22;1.25;;;1.15;;
32172;SDS011;18679;45.190;5.722;2024-01-06T15:18:23;4.10;;;0.98;;
32172;SDS011;18679;45.190;5.722;2024-01-06T15:21:25;1.10;;;1.00;;
32172;SDS011;18679;45.190;5.722;2024-01-06T15:24:30;0.98;;;0.88;;
32172;SDS011;18679;45.190;5.722;2024-01-06T15:27:31;2.25;;;0.85;;
32172;SDS011;18679;45.190;5.722;2024-01-06T15:30:33;0.75;;;0.73;;
32172;SDS011;18679;45.190;5.722;2024-01-06T15:33:34;1.23;;;0.80;;
32172;SDS011;18679;45.190;5.722;2024-01-06T15:36:34;2.17;;;1.15;;
32172;SDS011;18679;45.190;5.722;2024-01-06T15:39:39;1.85;;;0.85;;
32172;SDS011;18679;45.190;5.722;2024-01-06T15:42:40;1.52;;;1.08;;
32172;SDS011;18679;45.190;5.722;2024-01-06T15:45:41;2.58;;;1.38;;
32172;SDS011;18679;45.190;5.722;2024-01-06T15:48:42;4.53;;;1.15;;
32172;SDS011;18679;45.190;5.722;2024-01-06T15:51:43;2.42;;;1.00;;
32172;SDS011;18679;45.190;5.722;2024-01-06T15:54:45;2.00;;;1.13;;
32172;SDS011;18679;45.190;5.722;2024-01-06T15:57:48;11.15;;;1.75;;
32172;SDS011;18679;45.190;5.722;2024-01-06T16:00:50;1.20;;;0.95;;
32172;SDS011;18679;45.190;5.722;2024-01-06T16:03:52;2.00;;;0.98;;
32172;SDS011;18679;45.190;5.722;2024-01-06T16:06:53;2.63;;;1.00;;
32172;SDS011;18679;45.190;5.722;2024-01-06T16:09:54;1.88;;;1.17;;
32172;SDS011;18679;45.190;5.722;2024-01-06T16:12:56;1.85;;;1.00;;
32172;SDS011;18679;45.190;5.722;2024-01-06T16:16:01;4.07;;;1.90;;
32172;SDS011;18679;45.190;5.722;2024-01-06T16:19:02;0.93;;;0.82;;
32172;SDS011;18679;45.190;5.722;2024-01-06T16:22:02;4.78;;;1.17;;
32172;SDS011;18679;45.190;5.722;2024-01-06T16:25:04;2.90;;;1.02;;
32172;SDS011;18679;45.190;5.722;2024-01-06T16:28:09;0.82;;;0.82;;
32172;SDS011;18679;45.190;5.722;2024-01-06T16:31:12;2.55;;;1.15;;
32172;SDS011;18679;45.190;5.722;2024-01-06T16:34:15;2.55;;;0.80;;
32172;SDS011;18679;45.190;5.722;2024-01-06T16:37:19;1.13;;;0.93;;
32172;SDS011;18679;45.190;5.722;2024-01-06T16:40:20;1.23;;;0.82;;
32172;SDS011;18679;45.190;5.722;2024-01-06T16:43:22;1.95;;;0.77;;
32172;SDS011;18679;45.190;5.722;2024-01-06T16:46:23;1.33;;;0.77;;
32172;SDS011;18679;45.190;5.722;2024-01-06T16:49:25;3.70;;;1.08;;
32172;SDS011;18679;45.190;5.722;2024-01-06T16:52:32;3.65;;;0.93;;
32172;SDS011;18679;45.190;5.722;2024-01-06T16:55:34;2.10;;;0.80;;
32172;SDS011;18679;45.190;5.722;2024-01-06T16:58:36;2.17;;;1.20;;
32172;SDS011;18679;45.190;5.722;2024-01-06T17:01:39;1.02;;;0.65;;
32172;SDS011;18679;45.190;5.722;2024-01-06T17:04:41;0.68;;;0.65;;
32172;SDS011;18679;45.190;5.722;2024-01-06T17:07:42;2.88;;;1.23;;
32172;SDS011;18679;45.190;5.722;2024-01-06T17:10:47;0.88;;;0.70;;
32172;SDS011;18679;45.190;5.722;2024-01-06T17:13:47;1.67;;;1.00;;
32172;SDS011;18679;45.190;5.722;2024-01-06T17:16:51;0.85;;;0.75;;
32172;SDS011;18679;45.190;5.722;2024-01-06T17:19:55;1.55;;;1.33;;
32172;SDS011;18679;45.190;5.722;2024-01-06T17:22:56;1.65;;;1.02;;
32172;SDS011;18679;45.190;5.722;2024-01-06T17:25:57;3.28;;;1.30;;
32172;SDS011;18679;45.190;5.722;2024-01-06T17:28:58;3.83;;;1.20;;
32172;SDS011;18679;45.190;5.722;2024-01-06T17:32:00;5.30;;;1.00;;
32172;SDS011;18679;45.190;5.722;2024-01-06T17:35:02;3.67;;;1.20;;
32172;SDS011;18679;45.190;5.722;2024-01-06T17:38:04;2.53;;;1.35;;
32172;SDS011;18679;45.190;5.722;2024-01-06T17:41:05;3.92;;;1.05;;
32172;SDS011;18679;45.190;5.722;2024-01-06T17:44:09;3.00;;;1.40;;
32172;SDS011;18679;45.190;5.722;2024-01-06T17:47:13;1.90;;;1.08;;
32172;SDS011;18679;45.190;5.722;2024-01-06T17:50:16;5.25;;;1.10;;
32172;SDS011;18679;45.190;5.722;2024-01-06T17:53:18;1.73;;;1.05;;
32172;SDS011;18679;45.190;5.722;2024-01-06T17:56:27;1.13;;;1.00;;
32172;SDS011;18679;45.190;5.722;2024-01-06T17:59:29;3.47;;;1.80;;
32172;SDS011;18679;45.190;5.722;2024-01-06T18:02:30;1.42;;;0.98;;
32172;SDS011;18679;45.190;5.722;2024-01-06T18:43:40;3.20;;;1.70;;
32172;SDS011;18679;45.190;5.722;2024-01-06T18:46:41;1.90;;;1.13;;
32172;SDS011;18679;45.190;5.722;2024-01-06T18:49:44;6.47;;;1.60;;
32172;SDS011;18679;45.190;5.722;2024-01-06T18:52:45;1.70;;;1.40;;